createdAt,value
2022-11-06T00:06:49.994Z,84.95
2022-11-06T00:16:53.921Z,84.92
2022-11-06T00:26:58.004Z,84.72
2022-11-06T00:37:02.593Z,84.50
2022-11-06T00:47:06.779Z,84.17
2022-11-06T00:57:10.617Z,84.51
2022-11-06T01:07:14.616Z,84.18
2022-11-06T01:17:18.188Z,84.17
2022-11-06T01:27:26.743Z,84.21
2022-11-06T01:37:31.241Z,84.26
2022-11-06T01:47:35.000Z,84.40
2022-11-06T01:57:39.890Z,84.35
2022-11-06T02:07:44.369Z,84.01
2022-11-06T02:18:09.143Z,84.56
2022-11-06T02:28:24.452Z,84.31
2022-11-06T02:38:43.568Z,84.87
2022-11-06T02:49:03.109Z,84.96
2022-11-06T02:59:12.879Z,84.79
2022-11-06T03:09:21.099Z,84.48
2022-11-06T03:19:54.628Z,84.42
2022-11-06T03:30:05.589Z,84.21
2022-11-06T03:40:15.020Z,83.55
2022-11-06T03:50:33.357Z,83.27
2022-11-06T04:00:41.113Z,83.69
2022-11-06T04:11:07.185Z,84.23
2022-11-06T04:21:26.300Z,84.76
2022-11-06T04:31:42.788Z,84.94
2022-11-06T04:41:50.642Z,85.03
2022-11-06T04:51:54.587Z,84.50
2022-11-06T05:01:58.202Z,84.28
2022-11-06T05:12:02.239Z,84.23
2022-11-06T05:22:24.928Z,84.43
2022-11-06T05:32:31.051Z,84.61
2022-11-06T05:42:38.667Z,84.59
2022-11-06T05:52:42.280Z,84.52
2022-11-06T06:02:46.157Z,85.07
2022-11-06T06:12:50.944Z,84.96
2022-11-06T06:22:59.368Z,84.48
2022-11-06T06:33:07.277Z,84.46
2022-11-06T06:43:11.059Z,84.02
2022-11-06T06:53:15.213Z,83.03
2022-11-06T07:03:18.995Z,83.40
2022-11-06T07:13:22.855Z,83.36
2022-11-06T07:23:26.730Z,82.88
2022-11-06T07:33:30.997Z,82.27
2022-11-06T07:43:36.106Z,81.57
2022-11-06T07:53:40.172Z,81.12
2022-11-06T08:03:44.556Z,80.61
2022-11-06T08:13:48.423Z,80.07
2022-11-06T08:23:52.187Z,79.09
2022-11-06T08:33:55.964Z,79.23
2022-11-06T08:43:59.835Z,79.07
2022-11-06T08:54:05.276Z,78.43
2022-11-06T09:04:09.820Z,77.72
2022-11-06T09:14:13.709Z,77.52
2022-11-06T09:24:27.389Z,76.83
2022-11-06T09:34:42.019Z,77.05
2022-11-06T09:44:46.173Z,75.09
2022-11-06T09:54:58.041Z,73.74
2022-11-06T10:05:26.378Z,73.87
2022-11-06T10:15:46.065Z,73.53
2022-11-06T10:26:19.460Z,72.60
2022-11-06T10:36:30.871Z,72.38
2022-11-06T10:46:40.178Z,71.54
2022-11-06T10:57:09.222Z,72.04
2022-11-06T11:07:21.301Z,72.13
2022-11-06T11:17:25.869Z,71.67
2022-11-06T11:27:38.738Z,72.10
2022-11-06T11:37:43.359Z,71.84
2022-11-06T11:47:50.298Z,71.72
2022-11-06T11:57:59.464Z,71.00
2022-11-06T12:08:05.468Z,70.78
2022-11-06T12:18:20.692Z,72.40
2022-11-06T12:28:25.900Z,73.15
2022-11-06T12:39:16.851Z,73.70
2022-11-06T12:49:47.697Z,73.80
2022-11-06T13:00:02.044Z,74.00
2022-11-06T13:10:10.217Z,74.17
2022-11-06T13:20:27.695Z,74.31
2022-11-06T13:30:32.535Z,74.93
2022-11-06T13:40:43.528Z,75.76
2022-11-06T13:51:17.907Z,76.61
2022-11-06T14:01:35.938Z,76.64
2022-11-06T14:11:43.851Z,76.59
2022-11-06T14:21:51.906Z,76.65
2022-11-06T14:32:07.043Z,76.95
2022-11-06T14:42:11.813Z,77.46
2022-11-06T14:52:17.593Z,78.15
2022-11-06T15:02:27.000Z,78.50
2022-11-06T15:13:07.423Z,78.57
2022-11-06T15:23:22.563Z,79.13
2022-11-06T15:33:43.200Z,79.49
2022-11-06T15:43:50.893Z,79.97
2022-11-06T15:53:56.097Z,80.31
2022-11-06T16:04:15.758Z,80.42
2022-11-06T16:14:23.558Z,80.23
2022-11-06T16:24:59.920Z,79.75
2022-11-06T16:35:33.131Z,80.17
2022-11-06T16:45:57.458Z,80.07
2022-11-06T16:56:11.438Z,80.35
2022-11-06T17:06:25.830Z,80.96
2022-11-06T17:16:31.459Z,81.44
2022-11-06T17:26:41.678Z,81.53
2022-11-06T17:36:46.360Z,81.66
2022-11-06T17:46:51.733Z,81.77
2022-11-06T17:56:59.339Z,81.97
2022-11-06T18:07:04.422Z,82.21
2022-11-06T18:17:11.697Z,82.41
2022-11-06T18:27:17.457Z,82.60
2022-11-06T18:37:30.073Z,82.59
2022-11-06T18:47:34.442Z,82.31
2022-11-06T18:57:41.796Z,82.15
2022-11-06T19:07:51.904Z,82.35
2022-11-06T19:18:00.963Z,82.84
2022-11-06T19:28:06.080Z,82.59
2022-11-06T19:38:12.221Z,81.96
2022-11-06T19:48:18.957Z,81.64
2022-11-06T19:58:23.734Z,81.05
2022-11-06T20:08:29.878Z,80.09
2022-11-06T20:18:39.276Z,79.53
2022-11-06T20:28:47.837Z,79.23
2022-11-06T20:38:58.255Z,79.74
2022-11-06T20:49:07.316Z,80.04
2022-11-06T20:59:12.783Z,80.59
2022-11-06T21:09:18.699Z,81.62
2022-11-06T21:19:27.643Z,82.89
2022-11-06T21:29:32.242Z,82.82
2022-11-06T21:39:37.001Z,83.64
2022-11-06T21:49:40.721Z,84.06
2022-11-06T21:59:45.609Z,84.56
2022-11-06T22:09:50.168Z,84.73
2022-11-06T22:19:54.350Z,85.24
2022-11-06T22:29:58.438Z,85.55
2022-11-06T22:40:02.098Z,85.61
2022-11-06T22:50:06.467Z,85.34
2022-11-06T23:00:11.510Z,85.29
2022-11-06T23:10:15.141Z,84.59
2022-11-06T23:20:21.464Z,84.50
2022-11-06T23:30:25.124Z,84.63
2022-11-06T23:40:29.088Z,84.57
2022-11-06T23:50:32.980Z,84.54
